Time;durP1;ratioP1;P1;durP2;ratioP2;P2;SDS_P1;SDS_P2;PMS_P1;PMS_P2;Temp;Humidity;BMP_temperature;BMP_pressure;BME280_temperature;BME280_humidity;BME280_pressure;Samples;Min_cycle;Max_cycle;Signal;HPM_P1;HPM_P2
2021/04/03 00:02:03;;;;;;;24.38;7.13;;;7.40;82.00;;;;;;5095573;28;20032;-74
2021/04/03 00:04:29;;;;;;;15.30;5.63;;;7.30;82.00;;;;;;5080603;28;20031;-74
2021/04/03 00:06:54;;;;;;;25.17;6.80;;;7.30;82.10;;;;;;5079691;28;20077;-74
2021/04/03 00:09:20;;;;;;;23.55;5.85;;;7.30;82.00;;;;;;5077820;28;20235;-74
2021/04/03 00:11:45;;;;;;;21.83;5.53;;;7.30;82.00;;;;;;5060886;28;20035;-74
2021/04/03 00:14:11;;;;;;;14.60;5.40;;;7.30;82.00;;;;;;5096878;28;20036;-74
2021/04/03 00:16:37;;;;;;;14.38;5.32;;;7.30;81.70;;;;;;5115026;28;20040;-74
2021/04/03 00:19:02;;;;;;;25.15;6.28;;;7.30;81.70;;;;;;5115588;28;20471;-74
2021/04/03 00:21:28;;;;;;;21.83;5.47;;;7.30;82.20;;;;;;5077376;28;20028;-74
2021/04/03 00:23:54;;;;;;;16.90;5.50;;;7.30;81.80;;;;;;5102073;28;20472;-74
2021/04/03 00:26:19;;;;;;;23.13;6.47;;;7.30;81.70;;;;;;5074220;28;20028;-74
2021/04/03 00:28:45;;;;;;;20.52;5.45;;;7.30;81.70;;;;;;5076910;28;20086;-74
2021/04/03 00:31:11;;;;;;;26.70;7.32;;;7.30;81.80;;;;;;5094694;28;20530;-74
2021/04/03 00:33:36;;;;;;;23.42;6.60;;;7.30;81.70;;;;;;5060516;28;20036;-74
2021/04/03 00:36:02;;;;;;;17.27;5.35;;;7.30;81.80;;;;;;5079986;28;20024;-74
2021/04/03 00:38:28;;;;;;;27.42;7.28;;;7.30;81.60;;;;;;5106322;28;20110;-74
2021/04/03 00:40:54;;;;;;;24.27;6.10;;;7.30;81.80;;;;;;5076832;28;20052;-74
2021/04/03 00:43:23;;;;;;;25.70;7.35;;;7.30;81.70;;;;;;5076933;28;20059;-74
2021/04/03 00:45:49;;;;;;;20.02;5.93;;;7.20;81.60;;;;;;5094955;28;20028;-74
2021/04/03 00:48:16;;;;;;;22.95;5.53;;;7.20;81.70;;;;;;5077953;28;20437;-74
2021/04/03 00:50:44;;;;;;;21.13;5.53;;;7.20;81.80;;;;;;5076163;28;20638;-74
2021/04/03 00:53:12;;;;;;;27.53;6.73;;;7.20;81.80;;;;;;5096433;28;20488;-75
2021/04/03 00:55:39;;;;;;;23.53;5.33;;;7.10;81.90;;;;;;5107793;28;20285;-74
2021/04/03 00:58:05;;;;;;;22.17;5.63;;;7.10;81.90;;;;;;5114309;28;20352;-74
2021/04/03 01:00:30;;;;;;;23.35;5.88;;;7.10;81.90;;;;;;5097927;28;20302;-74
2021/04/03 01:02:56;;;;;;;26.63;6.03;;;7.10;81.90;;;;;;5076729;28;20040;-75
2021/04/03 01:05:26;;;;;;;25.00;5.78;;;7.10;82.10;;;;;;5076132;28;20024;-74
2021/04/03 01:07:53;;;;;;;23.23;5.82;;;7.10;81.90;;;;;;5088363;28;20499;-74
2021/04/03 01:10:22;;;;;;;18.30;5.63;;;7.10;82.30;;;;;;5094571;28;20056;-74
2021/04/03 01:12:56;;;;;;;28.33;5.20;;;7.10;81.40;;;;;;5109643;28;20081;-74
2021/04/03 01:15:32;;;;;;;23.90;4.68;;;7.10;80.90;;;;;;5094619;28;20032;-74
2021/04/03 01:18:00;;;;;;;25.13;4.93;;;7.00;80.10;;;;;;5079449;28;20047;-74
2021/04/03 01:20:40;;;;;;;27.30;5.47;;;7.00;80.10;;;;;;5094191;28;20020;-74
2021/04/03 01:23:24;;;;;;;22.70;5.03;;;7.00;79.70;;;;;;5074093;28;20070;-74
2021/04/03 01:26:12;;;;;;;15.18;3.78;;;7.00;79.70;;;;;;5092788;28;20165;-74
2021/04/03 01:28:53;;;;;;;15.55;4.30;;;6.90;79.40;;;;;;5077915;28;20511;-74
2021/04/03 01:31:19;;;;;;;16.25;3.50;;;7.00;79.20;;;;;;5107206;28;20481;-74
2021/04/03 01:33:47;;;;;;;24.75;4.32;;;7.00;78.90;;;;;;5114173;28;20499;-74
2021/04/03 01:36:22;;;;;;;23.23;4.50;;;7.00;78.30;;;;;;5101163;28;20028;-73
2021/04/03 01:38:58;;;;;;;22.73;4.28;;;7.00;77.80;;;;;;5096716;28;20023;-74
2021/04/03 01:41:28;;;;;;;15.52;3.30;;;7.00;77.60;;;;;;5099704;28;20052;-74
2021/04/03 01:43:54;;;;;;;;;;;7.00;76.80;;;;;;5094661;28;20024;-74
2021/04/03 01:46:24;;;;;;;12.70;2.78;;;6.90;76.70;;;;;;5093515;28;19920;-74
2021/04/03 01:48:51;;;;;;;19.70;3.42;;;6.90;77.00;;;;;;5097369;28;20514;-74
2021/04/03 01:51:18;;;;;;;19.25;2.75;;;6.90;77.10;;;;;;5085596;28;20028;-74
2021/04/03 01:53:45;;;;;;;15.80;2.90;;;7.00;76.50;;;;;;5096513;28;20027;-74
2021/04/03 01:56:13;;;;;;;13.38;2.90;;;7.00;76.20;;;;;;5076398;28;20038;-74
2021/04/03 01:58:41;;;;;;;13.02;2.28;;;7.10;76.10;;;;;;5077363;28;20146;-74
2021/04/03 02:01:09;;;;;;;13.18;2.30;;;7.10;76.60;;;;;;5087657;28;20110;-74
2021/04/03 02:03:35;;;;;;;11.32;2.67;;;7.10;75.70;;;;;;5112665;28;20383;-74
2021/04/03 02:06:05;;;;;;;15.88;3.40;;;7.00;74.90;;;;;;5093286;28;20060;-74
2021/04/03 02:08:32;;;;;;;20.88;2.95;;;7.10;74.90;;;;;;5074927;28;20377;-74
2021/04/03 02:11:01;;;;;;;14.30;2.30;;;7.10;75.00;;;;;;5093644;28;20071;-74
2021/04/03 02:13:29;;;;;;;13.10;2.38;;;7.10;74.80;;;;;;5093163;28;20028;-74
2021/04/03 02:15:55;;;;;;;22.77;2.85;;;7.20;74.70;;;;;;5112414;28;20055;-74
2021/04/03 02:18:22;;;;;;;12.68;2.22;;;7.10;74.00;;;;;;5097404;28;20508;-74
2021/04/03 02:20:48;;;;;;;22.60;3.03;;;7.10;74.20;;;;;;5092186;28;20048;-74
2021/04/03 02:23:14;;;;;;;12.52;2.90;;;7.20;73.90;;;;;;5098028;28;20063;-74
2021/04/03 02:25:40;;;;;;;18.35;3.17;;;7.10;74.00;;;;;;5093103;28;20024;-74
2021/04/03 02:28:05;;;;;;;16.27;2.97;;;7.10;73.50;;;;;;5092867;28;20080;-74
2021/04/03 02:30:31;;;;;;;20.45;2.60;;;7.10;73.70;;;;;;5093071;28;20040;-74
2021/04/03 02:32:57;;;;;;;15.02;2.60;;;7.10;73.80;;;;;;5074874;28;20035;-74
2021/04/03 02:35:26;;;;;;;19.80;3.15;;;7.10;74.00;;;;;;5088501;28;20468;-74
2021/04/03 02:37:58;;;;;;;18.23;2.30;;;7.00;73.90;;;;;;5100051;28;20028;-74
2021/04/03 02:40:28;;;;;;;20.02;2.90;;;7.00;73.90;;;;;;5092546;28;20081;-74
2021/04/03 02:43:08;;;;;;;16.23;3.08;;;7.00;73.90;;;;;;5093042;28;20346;-74
2021/04/03 02:45:41;;;;;;;13.50;2.50;;;7.10;74.20;;;;;;5087148;28;20031;-74
2021/04/03 02:48:16;;;;;;;18.05;2.78;;;7.10;73.90;;;;;;5075072;28;20052;-75
2021/04/03 02:50:43;;;;;;;12.23;3.00;;;7.10;73.90;;;;;;5066606;28;20107;-74
2021/04/03 02:53:11;;;;;;;13.98;2.67;;;7.10;73.80;;;;;;5052658;28;20057;-74
2021/04/03 02:55:40;;;;;;;23.05;3.20;;;7.10;73.40;;;;;;5047173;28;20047;-74
2021/04/03 02:58:06;;;;;;;;;;;7.10;72.90;;;;;;5052149;28;20029;-74
2021/04/03 03:00:32;;;;;;;19.63;3.42;;;7.10;72.40;;;;;;5067800;28;20327;-75
2021/04/03 03:02:59;;;;;;;21.17;3.05;;;7.00;72.60;;;;;;5055163;28;20029;-74
2021/04/03 03:05:24;;;;;;;14.07;2.85;;;7.00;72.60;;;;;;5051775;28;20454;-74
2021/04/03 03:07:52;;;;;;;20.73;3.00;;;7.00;72.60;;;;;;5051537;28;20108;-74
2021/04/03 03:10:19;;;;;;;18.08;3.05;;;7.00;72.60;;;;;;5052602;28;20048;-74
2021/04/03 03:12:47;;;;;;;16.65;2.88;;;7.00;72.60;;;;;;5062238;28;20478;-74
2021/04/03 03:15:15;;;;;;;17.00;3.17;;;6.90;72.80;;;;;;5056288;28;20039;-74
2021/04/03 03:17:45;;;;;;;14.48;2.67;;;7.00;72.90;;;;;;5055456;28;20108;-74
2021/04/03 03:20:15;;;;;;;15.35;3.05;;;6.90;73.00;;;;;;5056477;28;20441;-74
2021/04/03 03:22:42;;;;;;;15.75;3.03;;;7.00;73.10;;;;;;5056884;28;20533;-74
2021/04/03 03:25:08;;;;;;;16.63;3.00;;;6.90;72.90;;;;;;5059576;28;20055;-74
2021/04/03 03:27:37;;;;;;;15.05;2.50;;;6.90;72.80;;;;;;5076243;28;20033;-74
2021/04/03 03:30:05;;;;;;;16.58;3.13;;;6.90;72.90;;;;;;5066363;28;20033;-74
2021/04/03 03:32:30;;;;;;;23.90;3.55;;;7.00;72.60;;;;;;5073047;28;20060;-73
2021/04/03 03:34:57;;;;;;;25.10;4.50;;;7.00;72.80;;;;;;5067147;28;20067;-74
2021/04/03 03:37:24;;;;;;;20.92;3.25;;;6.90;72.60;;;;;;5074969;28;20373;-74
2021/04/03 03:39:51;;;;;;;17.60;3.30;;;6.90;72.60;;;;;;5066661;28;20029;-74
2021/04/03 03:42:17;;;;;;;24.77;3.60;;;6.90;72.60;;;;;;5056319;28;20033;-74
2021/04/03 03:44:43;;;;;;;16.25;2.70;;;6.90;72.60;;;;;;5072937;28;20361;-74
2021/04/03 03:47:09;;;;;;;14.23;2.97;;;6.90;73.00;;;;;;5079371;28;20047;-74
2021/04/03 03:49:34;;;;;;;21.90;3.80;;;6.80;73.10;;;;;;5080543;28;20400;-74
2021/04/03 03:52:00;;;;;;;26.55;3.50;;;6.80;73.30;;;;;;5074887;28;20108;-74
2021/04/03 03:54:25;;;;;;;18.30;3.13;;;6.80;73.40;;;;;;5075248;28;20127;-74
2021/04/03 03:56:51;;;;;;;18.27;3.10;;;6.80;73.40;;;;;;5083547;28;20028;-74
2021/04/03 03:59:17;;;;;;;17.50;3.08;;;6.80;73.50;;;;;;5094641;28;20027;-74
2021/04/03 04:01:43;;;;;;;13.95;2.85;;;6.70;73.70;;;;;;5067667;28;20480;-74
2021/04/03 04:04:08;;;;;;;17.17;3.10;;;6.80;73.80;;;;;;5074819;28;20020;-74
2021/04/03 04:06:34;;;;;;;19.15;3.15;;;6.70;73.90;;;;;;5080740;28;20511;-74
2021/04/03 04:09:03;;;;;;;15.27;2.28;;;6.80;74.10;;;;;;5078435;28;20033;-74
2021/04/03 04:11:28;;;;;;;12.50;2.80;;;6.80;74.10;;;;;;5079057;28;20025;-74
2021/04/03 04:13:54;;;;;;;14.68;2.45;;;6.80;74.00;;;;;;5075131;28;20065;-74
2021/04/03 04:16:19;;;;;;;21.15;3.53;;;6.80;73.90;;;;;;5083634;28;20024;-74
2021/04/03 04:18:45;;;;;;;21.05;2.90;;;6.80;73.90;;;;;;5080531;28;20522;-74
2021/04/03 04:21:11;;;;;;;24.70;3.40;;;6.80;74.20;;;;;;5075448;28;20039;-74
2021/04/03 04:23:36;;;;;;;18.65;3.08;;;6.80;74.20;;;;;;5074241;28;20033;-74
2021/04/03 04:26:02;;;;;;;23.17;3.42;;;6.70;73.90;;;;;;5077561;28;20035;-74
2021/04/03 04:28:28;;;;;;;19.52;3.00;;;6.70;74.00;;;;;;5088322;28;20488;-74
2021/04/03 04:30:54;;;;;;;22.15;4.65;;;6.70;74.10;;;;;;5072610;28;20039;-74
2021/04/03 04:33:20;;;;;;;17.02;4.00;;;6.70;74.20;;;;;;5089089;28;20051;-74
2021/04/03 04:35:46;;;;;;;19.85;3.65;;;6.70;74.20;;;;;;5074772;28;20036;-73
2021/04/03 04:38:12;;;;;;;28.30;4.65;;;6.70;74.20;;;;;;5086895;28;20024;-74
2021/04/03 04:40:37;;;;;;;24.02;4.03;;;6.70;74.10;;;;;;5073630;28;20032;-74
2021/04/03 04:43:03;;;;;;;29.70;5.22;;;6.80;74.20;;;;;;5056955;28;20025;-74
2021/04/03 04:45:28;;;;;;;33.08;6.30;;;6.70;74.10;;;;;;5073676;28;20481;-74
2021/04/03 04:47:54;;;;;;;25.25;3.45;;;6.70;74.20;;;;;;5056474;28;20105;-74
2021/04/03 04:50:20;;;;;;;22.13;4.38;;;6.70;74.30;;;;;;5068356;28;20039;-74
2021/04/03 04:52:46;;;;;;;25.67;3.92;;;6.70;74.30;;;;;;5054652;28;20065;-74
2021/04/03 04:55:12;;;;;;;22.95;3.92;;;6.70;74.40;;;;;;5054725;28;20041;-74
2021/04/03 04:57:38;;;;;;;18.88;3.47;;;6.70;74.40;;;;;;5053332;28;20111;-74
2021/04/03 05:00:04;;;;;;;23.35;3.95;;;6.70;74.40;;;;;;5053323;28;20525;-74
2021/04/03 05:02:30;;;;;;;28.15;4.40;;;6.70;74.40;;;;;;5052621;28;20037;-74
2021/04/03 05:04:56;;;;;;;27.85;4.00;;;6.70;74.20;;;;;;5053197;28;20464;-74
2021/04/03 05:07:21;;;;;;;21.67;3.28;;;6.70;74.00;;;;;;5042952;28;20028;-74
2021/04/03 05:09:47;;;;;;;28.52;4.00;;;6.70;74.00;;;;;;5072477;28;20059;-74
2021/04/03 05:12:13;;;;;;;32.58;4.55;;;6.70;74.00;;;;;;5056583;28;20033;-74
2021/04/03 05:14:38;;;;;;;19.67;3.30;;;6.60;74.00;;;;;;5053080;28;20111;-74
2021/04/03 05:17:04;;;;;;;20.65;3.20;;;6.70;74.00;;;;;;5054623;28;20035;-74
2021/04/03 05:19:30;;;;;;;30.30;4.13;;;6.70;74.00;;;;;;5053007;28;20029;-74
2021/04/03 05:21:55;;;;;;;29.50;4.60;;;6.60;74.00;;;;;;5033292;28;20030;-74
2021/04/03 05:24:21;;;;;;;19.15;4.50;;;6.70;74.00;;;;;;5056130;28;20032;-74
2021/04/03 05:26:47;;;;;;;21.38;3.90;;;6.70;73.80;;;;;;5044852;28;20094;-74
2021/04/03 05:29:13;;;;;;;13.50;3.50;;;6.70;73.80;;;;;;5058179;28;20028;-74
2021/04/03 05:31:38;;;;;;;29.45;4.47;;;6.70;73.90;;;;;;5063601;28;20033;-74
2021/04/03 05:34:04;;;;;;;32.47;4.65;;;6.80;73.90;;;;;;5069863;28;20386;-74
2021/04/03 05:36:30;;;;;;;31.02;4.85;;;6.80;73.90;;;;;;5056459;28;20021;-74
2021/04/03 05:38:56;;;;;;;33.97;5.25;;;6.70;73.90;;;;;;5034031;28;20025;-73
2021/04/03 05:41:21;;;;;;;19.70;3.45;;;6.70;73.90;;;;;;5056541;28;20017;-74
2021/04/03 05:43:47;;;;;;;29.40;4.20;;;6.70;74.00;;;;;;5073657;28;20037;-74
2021/04/03 05:46:18;;;;;;;31.55;4.47;;;6.80;73.90;;;;;;5061948;28;20028;-74
2021/04/03 05:48:44;;;;;;;24.65;3.33;;;6.80;73.80;;;;;;5114228;28;20445;-74
2021/04/03 05:51:12;;;;;;;26.65;3.97;;;6.80;73.90;;;;;;5111880;28;20105;-74
2021/04/03 05:53:38;;;;;;;32.08;3.92;;;6.80;74.00;;;;;;5113874;28;20039;-74
2021/04/03 05:56:05;;;;;;;20.17;3.33;;;6.80;74.00;;;;;;5103972;28;20028;-74
2021/04/03 05:58:31;;;;;;;27.45;3.90;;;6.80;74.00;;;;;;5093452;28;20537;-74
2021/04/03 06:00:58;;;;;;;18.98;3.08;;;6.90;74.20;;;;;;5098339;28;20027;-74
2021/04/03 06:03:24;;;;;;;26.67;3.58;;;6.90;74.10;;;;;;5111400;28;20028;-74
2021/04/03 06:05:51;;;;;;;16.25;2.85;;;7.00;74.10;;;;;;5079800;28;20034;-74
2021/04/03 06:08:17;;;;;;;16.48;3.25;;;7.00;74.20;;;;;;5100422;28;20503;-74
2021/04/03 06:11:14;;;;;;;18.95;3.15;;;7.00;74.10;;;;;;5108815;28;20032;-74
2021/04/03 06:13:42;;;;;;;14.48;2.88;;;7.00;74.10;;;;;;5073223;28;20575;-74
2021/04/03 06:16:37;;;;;;;23.13;3.25;;;7.10;74.00;;;;;;5082934;28;20114;-74
2021/04/03 06:19:21;;;;;;;27.05;3.83;;;7.20;74.00;;;;;;5092829;28;20028;-74
2021/04/03 06:21:53;;;;;;;27.35;4.15;;;7.20;73.90;;;;;;5097125;28;20477;-74
2021/04/03 06:24:32;;;;;;;20.50;3.25;;;7.30;73.80;;;;;;5092589;28;20584;-74
2021/04/03 06:27:01;;;;;;;20.40;3.63;;;7.30;73.80;;;;;;5075134;28;20524;-74
2021/04/03 06:29:36;;;;;;;22.30;3.78;;;7.40;73.60;;;;;;5092917;28;20036;-74
2021/04/03 06:32:02;;;;;;;23.98;3.72;;;7.40;73.70;;;;;;5092452;28;20369;-74
2021/04/03 06:34:33;;;;;;;21.58;3.40;;;7.40;73.70;;;;;;5084080;28;20031;-74
2021/04/03 06:36:59;;;;;;;29.10;4.22;;;7.50;73.70;;;;;;5076548;28;20074;-74
2021/04/03 06:39:26;;;;;;;21.77;3.45;;;7.50;73.70;;;;;;5075821;28;20114;-74
2021/04/03 06:41:52;;;;;;;21.77;3.80;;;7.50;73.60;;;;;;5075252;28;20020;-74
2021/04/03 06:44:18;;;;;;;24.38;3.78;;;7.50;73.70;;;;;;5074503;28;20052;-74
2021/04/03 06:46:46;;;;;;;23.50;4.00;;;7.50;73.50;;;;;;5058037;28;20052;-74
2021/04/03 06:49:13;;;;;;;25.67;3.53;;;7.60;73.30;;;;;;5092315;28;20028;-74
2021/04/03 06:51:39;;;;;;;19.98;3.58;;;7.70;73.20;;;;;;5092815;28;20078;-74
2021/04/03 06:54:07;;;;;;;24.65;3.88;;;7.80;73.10;;;;;;5092796;28;20041;-74
2021/04/03 06:56:34;;;;;;;29.17;4.65;;;7.80;72.90;;;;;;5092476;28;20025;-74
2021/04/03 06:59:13;;;;;;;23.65;3.80;;;7.90;72.80;;;;;;5093828;28;20020;-74
2021/04/03 07:01:38;;;;;;;27.90;4.50;;;7.90;72.80;;;;;;5074336;28;20039;-73
2021/04/03 07:04:14;;;;;;;26.63;4.00;;;7.90;72.80;;;;;;5074598;28;20042;-74
2021/04/03 07:06:43;;;;;;;32.15;4.85;;;7.90;72.80;;;;;;5078585;28;20392;-73
2021/04/03 07:09:10;;;;;;;19.08;4.05;;;8.00;72.60;;;;;;5080894;28;20123;-74
2021/04/03 07:11:37;;;;;;;25.65;4.85;;;8.00;72.40;;;;;;5083699;28;20033;-73
2021/04/03 07:14:03;;;;;;;23.05;4.00;;;8.10;72.40;;;;;;5080469;28;20028;-74
2021/04/03 07:16:30;;;;;;;25.52;4.15;;;8.20;72.40;;;;;;5101428;28;20039;-74
2021/04/03 07:18:56;;;;;;;25.63;4.55;;;8.30;71.90;;;;;;5092806;28;20021;-74
2021/04/03 07:21:22;;;;;;;35.00;5.63;;;8.60;71.30;;;;;;5073963;28;20052;-74
2021/04/03 07:23:50;;;;;;;23.27;3.53;;;8.70;70.70;;;;;;5093098;28;20036;-74
2021/04/03 07:26:17;;;;;;;29.23;4.80;;;8.80;70.20;;;;;;5091713;28;20020;-74
2021/04/03 07:28:43;;;;;;;20.52;3.58;;;8.80;69.40;;;;;;5074689;28;20020;-74
2021/04/03 07:31:09;;;;;;;22.40;4.60;;;8.70;69.60;;;;;;5074078;28;20043;-74
2021/04/03 07:33:49;;;;;;;30.42;5.15;;;8.60;69.60;;;;;;5093590;28;20028;-74
2021/04/03 07:36:29;;;;;;;;;;;8.50;68.90;;;;;;5078932;28;20028;-74
2021/04/03 07:38:55;;;;;;;23.17;3.97;;;8.40;69.10;;;;;;5099936;28;20396;-74
2021/04/03 07:41:21;;;;;;;22.77;4.32;;;8.40;69.00;;;;;;5056949;28;20067;-74
2021/04/03 07:43:48;;;;;;;22.25;3.67;;;8.40;68.30;;;;;;5092397;28;20104;-74
2021/04/03 07:46:40;;;;;;;18.17;3.53;;;8.50;67.90;;;;;;5073144;28;20024;-75
2021/04/03 07:49:06;;;;;;;19.25;3.08;;;8.60;67.40;;;;;;5071229;28;20485;-74
2021/04/03 07:51:31;;;;;;;21.73;3.20;;;8.80;66.40;;;;;;5050106;28;20049;-74
2021/04/03 07:53:58;;;;;;;28.77;4.20;;;8.90;66.10;;;;;;5084538;28;20037;-74
2021/04/03 07:56:27;;;;;;;16.40;3.85;;;9.00;65.80;;;;;;5092644;28;20041;-74
2021/04/03 07:58:58;;;;;;;23.00;4.00;;;9.00;65.50;;;;;;5066217;28;20025;-74
2021/04/03 08:01:29;;;;;;;19.60;4.47;;;9.10;65.30;;;;;;5073736;28;20056;-74
2021/04/03 08:04:00;;;;;;;22.15;4.07;;;9.10;65.30;;;;;;5073870;28;20024;-74
2021/04/03 08:06:30;;;;;;;21.05;3.63;;;9.20;65.50;;;;;;5072859;28;20478;-75
2021/04/03 08:08:56;;;;;;;21.50;3.55;;;9.30;65.10;;;;;;5073053;28;20040;-74
2021/04/03 08:11:22;;;;;;;28.45;4.38;;;9.50;64.50;;;;;;5073153;28;20017;-74
2021/04/03 08:13:50;;;;;;;24.70;4.30;;;9.40;64.30;;;;;;5073051;28;20029;-74
2021/04/03 08:16:17;;;;;;;21.48;4.10;;;9.40;64.60;;;;;;5074637;28;20408;-74
2021/04/03 08:18:52;;;;;;;20.92;3.83;;;9.40;64.40;;;;;;5072599;28;20033;-74
2021/04/03 08:21:18;;;;;;;18.58;4.43;;;9.30;64.10;;;;;;5073206;28;20032;-74
2021/04/03 08:23:49;;;;;;;23.20;3.80;;;9.30;64.40;;;;;;5073005;28;20036;-74
2021/04/03 08:26:20;;;;;;;21.00;3.90;;;9.30;65.00;;;;;;5072947;28;20092;-75
2021/04/03 08:28:46;;;;;;;25.33;4.32;;;9.40;64.70;;;;;;5073440;28;20024;-74
2021/04/03 08:31:21;;;;;;;23.30;4.25;;;9.60;65.00;;;;;;5073254;28;20545;-75
2021/04/03 08:33:51;;;;;;;16.02;3.53;;;9.70;64.60;;;;;;5071748;28;20028;-74
2021/04/03 08:36:20;;;;;;;20.48;3.53;;;9.90;64.50;;;;;;5073095;28;20025;-75
2021/04/03 08:38:47;;;;;;;19.10;3.80;;;10.00;64.10;;;;;;5071114;28;20020;-74
2021/04/03 08:41:20;;;;;;;20.25;4.30;;;10.20;64.00;;;;;;5072832;28;20033;-75
2021/04/03 08:43:47;;;;;;;26.92;5.28;;;10.40;63.10;;;;;;5072304;28;20103;-75
2021/04/03 08:46:16;;;;;;;24.88;4.78;;;10.40;62.50;;;;;;5072424;28;20032;-74
2021/04/03 08:48:44;;;;;;;19.75;4.60;;;10.40;63.50;;;;;;5071164;28;20059;-74
2021/04/03 08:51:11;;;;;;;22.80;3.90;;;10.50;62.40;;;;;;5099281;28;20067;-74
2021/04/03 08:53:41;;;;;;;29.50;4.88;;;10.60;61.90;;;;;;5098508;28;20119;-74
2021/04/03 08:56:07;;;;;;;17.33;3.63;;;10.60;61.30;;;;;;5073644;28;20020;-74
2021/04/03 08:58:35;;;;;;;24.02;4.65;;;10.50;61.90;;;;;;5072882;28;20499;-75
2021/04/03 09:01:01;;;;;;;27.58;4.05;;;10.40;62.10;;;;;;5069893;28;20028;-75
2021/04/03 09:03:26;;;;;;;21.65;4.40;;;10.40;62.00;;;;;;5072552;28;20024;-75
2021/04/03 09:05:52;;;;;;;17.05;4.10;;;10.30;62.10;;;;;;5072377;28;20499;-75
2021/04/03 09:08:20;;;;;;;25.35;4.85;;;10.30;62.70;;;;;;5071240;28;20055;-75
2021/04/03 09:10:59;;;;;;;24.80;4.43;;;10.20;62.40;;;;;;5071812;28;20477;-75
2021/04/03 09:13:32;;;;;;;;;;;10.10;62.90;;;;;;5072408;28;20059;-75
2021/04/03 09:16:10;;;;;;;23.70;4.57;;;10.20;63.10;;;;;;5072154;28;19909;-76
2021/04/03 09:18:37;;;;;;;22.38;4.47;;;10.20;63.00;;;;;;5073459;28;20021;-76
2021/04/03 09:21:02;;;;;;;25.92;4.68;;;10.20;62.80;;;;;;5071312;28;20025;-78
2021/04/03 09:23:28;;;;;;;32.60;5.82;;;10.10;62.90;;;;;;5072875;28;20393;-76
2021/04/03 09:25:59;;;;;;;29.58;4.47;;;9.90;63.20;;;;;;5072612;28;20073;-75
2021/04/03 09:28:32;;;;;;;18.77;4.20;;;9.70;63.70;;;;;;5072290;28;20020;-75
2021/04/03 09:30:58;;;;;;;25.90;4.60;;;9.70;64.40;;;;;;5071993;28;20107;-77
2021/04/03 09:33:26;;;;;;;27.38;5.75;;;9.70;64.40;;;;;;5067140;28;20577;-74
2021/04/03 09:36:06;;;;;;;24.57;4.03;;;9.80;64.50;;;;;;5070225;28;20383;-74
2021/04/03 09:38:37;;;;;;;21.25;4.95;;;9.90;64.40;;;;;;5072599;28;20078;-77
2021/04/03 09:41:19;;;;;;;29.13;6.22;;;10.10;64.40;;;;;;5069172;28;20104;-76
2021/04/03 09:43:45;;;;;;;66.32;30.42;;;10.10;63.70;;;;;;5100916;28;20028;-82
2021/04/03 09:46:11;;;;;;;39.45;15.38;;;10.10;63.60;;;;;;5070114;28;20054;-78
2021/04/03 09:48:37;;;;;;;36.03;10.07;;;10.10;64.00;;;;;;5064586;28;20076;-79
2021/04/03 09:51:06;;;;;;;38.05;10.75;;;10.30;64.20;;;;;;5054207;28;20064;-78
2021/04/03 09:53:32;;;;;;;36.22;10.27;;;10.70;63.70;;;;;;5042399;28;20447;-79
2021/04/03 09:55:57;;;;;;;34.13;8.18;;;11.10;63.10;;;;;;5064955;28;20056;-78
2021/04/03 09:58:24;;;;;;;25.50;6.53;;;11.50;62.50;;;;;;5054943;28;20044;-79
2021/04/03 10:00:50;;;;;;;23.02;5.75;;;11.80;62.00;;;;;;5045619;28;20032;-79
2021/04/03 10:03:15;;;;;;;23.08;4.93;;;12.00;61.50;;;;;;5049401;28;20590;-78
2021/04/03 10:05:41;;;;;;;24.33;5.10;;;12.20;61.60;;;;;;5057878;28;20117;-78
2021/04/03 10:08:06;;;;;;;22.20;5.00;;;12.20;61.20;;;;;;5059023;28;20420;-81
2021/04/03 10:10:32;;;;;;;14.98;3.42;;;12.20;60.90;;;;;;5065366;28;20115;-79
2021/04/03 10:12:58;;;;;;;24.50;4.38;;;12.20;60.30;;;;;;5072246;28;20105;-77
2021/04/03 10:15:24;;;;;;;26.25;4.78;;;12.00;60.00;;;;;;5072828;28;20017;-78
2021/04/03 10:17:50;;;;;;;20.55;4.90;;;12.10;60.40;;;;;;5070547;28;20060;-79
2021/04/03 10:20:16;;;;;;;22.10;4.50;;;12.20;59.70;;;;;;5064968;28;20110;-77
2021/04/03 10:22:42;;;;;;;21.95;4.82;;;12.30;59.50;;;;;;5058960;28;20084;-76
2021/04/03 10:25:08;;;;;;;21.85;4.55;;;12.20;58.30;;;;;;5056827;28;20575;-76
2021/04/03 10:27:34;;;;;;;27.20;4.60;;;12.10;58.50;;;;;;5056641;28;20503;-73
2021/04/03 10:29:59;;;;;;;21.27;4.13;;;12.10;59.00;;;;;;5060547;28;20057;-77
2021/04/03 10:32:25;;;;;;;22.17;4.90;;;12.20;58.90;;;;;;5060891;28;20112;-74
2021/04/03 10:34:51;;;;;;;21.92;4.85;;;12.50;58.30;;;;;;5059540;28;20396;-75
2021/04/03 10:37:16;;;;;;;18.90;4.40;;;12.50;58.20;;;;;;5059621;28;20029;-75
2021/04/03 10:39:42;;;;;;;23.92;4.90;;;12.60;58.00;;;;;;5061798;28;20547;-74
2021/04/03 10:42:08;;;;;;;22.25;4.30;;;12.80;57.90;;;;;;5058420;28;20024;-75
2021/04/03 10:44:34;;;;;;;28.65;6.07;;;13.10;57.60;;;;;;5061436;28;20033;-74
2021/04/03 10:46:59;;;;;;;27.60;5.22;;;13.20;56.60;;;;;;5061196;28;20496;-74
2021/04/03 10:49:25;;;;;;;21.77;4.47;;;13.00;56.40;;;;;;5060453;28;20110;-75
2021/04/03 10:51:51;;;;;;;15.70;4.20;;;12.70;56.80;;;;;;5057700;28;20035;-75
2021/04/03 10:54:19;;;;;;;19.15;4.57;;;12.60;58.10;;;;;;5061859;28;20040;-75
2021/04/03 10:56:45;;;;;;;16.77;4.00;;;12.70;58.00;;;;;;5057886;28;20087;-75
2021/04/03 10:59:11;;;;;;;14.13;3.60;;;12.90;57.40;;;;;;5060177;28;20263;-75
2021/04/03 11:01:37;;;;;;;22.55;4.57;;;12.90;56.50;;;;;;5058774;28;20032;-75
2021/04/03 11:04:03;;;;;;;18.05;4.35;;;13.00;55.70;;;;;;5053412;28;20081;-79
2021/04/03 11:06:28;;;;;;;30.77;5.28;;;13.00;56.10;;;;;;5062027;28;20021;-79
2021/04/03 11:08:54;;;;;;;21.98;4.75;;;13.20;56.20;;;;;;5069478;28;20040;-79
2021/04/03 11:11:19;;;;;;;18.83;4.35;;;13.40;56.20;;;;;;5069083;28;20506;-79
2021/04/03 11:13:45;;;;;;;17.45;4.38;;;13.60;55.40;;;;;;5062958;28;20493;-78
2021/04/03 11:16:10;;;;;;;17.55;3.60;;;13.80;55.20;;;;;;5052919;28;20061;-80
2021/04/03 11:18:36;;;;;;;24.35;4.95;;;13.90;54.70;;;;;;5054478;28;20021;-77
2021/04/03 11:21:02;;;;;;;26.33;4.90;;;13.80;54.30;;;;;;5060677;28;20597;-79
2021/04/03 11:23:28;;;;;;;25.88;4.93;;;13.70;54.40;;;;;;5060503;28;20608;-79
2021/04/03 11:25:53;;;;;;;18.98;4.45;;;13.50;54.60;;;;;;5057727;28;20078;-78
2021/04/03 11:28:19;;;;;;;21.85;4.45;;;13.30;55.30;;;;;;5057721;28;20028;-79
2021/04/03 11:30:45;;;;;;;18.38;3.95;;;13.30;55.40;;;;;;5070207;28;20390;-78
2021/04/03 11:33:11;;;;;;;15.93;4.20;;;13.40;55.30;;;;;;5067110;28;20028;-82
2021/04/03 11:35:36;;;;;;;18.75;4.38;;;13.70;55.00;;;;;;5066928;28;20021;-81
2021/04/03 11:38:03;;;;;;;18.08;4.70;;;13.90;54.70;;;;;;5062496;28;20029;-82
2021/04/03 11:40:29;;;;;;;18.98;4.30;;;14.20;54.70;;;;;;5060901;28;20075;-81
2021/04/03 11:42:55;;;;;;;27.73;5.55;;;14.60;53.40;;;;;;5066319;28;20489;-81
2021/04/03 11:45:23;;;;;;;22.67;4.43;;;14.80;51.90;;;;;;5060382;28;20056;-81
2021/04/03 11:47:53;;;;;;;23.58;5.35;;;14.50;52.00;;;;;;5068737;28;20044;-81
2021/04/03 11:50:20;;;;;;;23.33;4.72;;;14.20;52.20;;;;;;5067692;28;20400;-81
2021/04/03 11:52:46;;;;;;;26.63;5.43;;;13.90;52.80;;;;;;5062989;28;20029;-80
2021/04/03 11:55:15;;;;;;;12.88;3.88;;;13.70;52.60;;;;;;5070395;28;20033;-80
2021/04/03 11:57:40;;;;;;;19.45;3.90;;;13.50;53.30;;;;;;5061089;28;20036;-80
2021/04/03 12:00:09;;;;;;;15.90;3.80;;;13.60;53.20;;;;;;5057802;28;20120;-79
2021/04/03 12:02:35;;;;;;;15.50;4.03;;;13.80;52.70;;;;;;5058656;28;20052;-80
2021/04/03 12:05:02;;;;;;;15.02;4.25;;;14.00;52.70;;;;;;5061132;28;20447;-81
2021/04/03 12:07:28;;;;;;;21.42;4.10;;;14.10;52.30;;;;;;5057810;28;20036;-81
2021/04/03 12:09:53;;;;;;;14.48;4.18;;;14.30;51.90;;;;;;5064563;28;20493;-80
2021/04/03 12:12:19;;;;;;;22.88;3.97;;;14.30;51.70;;;;;;5064529;28;20566;-80
2021/04/03 12:14:45;;;;;;;21.33;3.95;;;14.20;50.80;;;;;;5051464;28;20111;-82
2021/04/03 12:17:10;;;;;;;14.60;3.78;;;13.90;51.20;;;;;;5061776;28;20499;-78
2021/04/03 12:19:36;;;;;;;18.40;4.03;;;13.60;51.50;;;;;;5056699;28;20026;-80
2021/04/03 12:22:02;;;;;;;23.50;4.68;;;13.40;52.10;;;;;;5061486;28;20047;-82
2021/04/03 12:24:28;;;;;;;17.42;4.25;;;13.50;51.70;;;;;;5058276;28;20029;-80
2021/04/03 12:26:53;;;;;;;15.80;3.90;;;13.60;51.90;;;;;;5052417;28;20104;-83
2021/04/03 12:29:19;;;;;;;19.10;4.57;;;13.80;52.20;;;;;;5065690;28;20037;-82
2021/04/03 12:31:45;;;;;;;11.85;3.55;;;14.20;52.10;;;;;;5045100;28;20392;-80
2021/04/03 12:34:10;;;;;;;21.60;4.63;;;14.50;51.30;;;;;;5055317;28;20041;-82
2021/04/03 12:36:36;;;;;;;11.88;3.90;;;14.50;49.90;;;;;;5046405;28;20060;-81
2021/04/03 12:39:02;;;;;;;20.88;4.15;;;14.40;49.00;;;;;;5020852;28;20045;-83
2021/04/03 12:41:27;;;;;;;29.63;4.18;;;14.20;49.60;;;;;;5047415;28;20019;-83
2021/04/03 12:43:53;;;;;;;31.02;4.20;;;14.30;50.10;;;;;;5063062;28;20029;-84
2021/04/03 12:46:18;;;;;;;75.10;5.70;;;14.50;50.00;;;;;;5067796;28;20077;-83
2021/04/03 12:48:44;;;;;;;175.23;9.30;;;14.70;49.40;;;;;;5053525;28;20037;-83